createdAt,value
2024-01-16T00:01:36.933Z,98036.61
2024-01-16T00:04:03.732Z,98041.00
2024-01-16T00:06:30.499Z,98048.59
2024-01-16T00:08:57.122Z,98045.61
2024-01-16T00:11:23.762Z,98053.98
2024-01-16T00:13:50.467Z,98067.24
2024-01-16T00:16:17.092Z,98064.90
2024-01-16T00:18:43.791Z,98069.55
2024-01-16T00:21:10.492Z,98087.89
2024-01-16T00:23:37.187Z,98087.66
2024-01-16T00:26:03.928Z,98086.11
2024-01-16T00:28:33.497Z,98099.55
2024-01-16T00:31:00.990Z,98103.42
2024-01-16T00:33:28.676Z,98107.52
2024-01-16T00:35:55.521Z,98111.77
2024-01-16T00:38:23.358Z,98112.46
2024-01-16T00:40:50.169Z,98120.67
2024-01-16T00:43:16.790Z,98132.35
2024-01-16T00:45:43.458Z,98135.73
2024-01-16T00:48:11.708Z,98143.30
2024-01-16T00:50:38.794Z,98149.01
2024-01-16T00:53:05.591Z,98150.09
2024-01-16T00:55:32.221Z,98157.52
2024-01-16T00:57:58.841Z,98157.42
2024-01-16T01:00:26.004Z,98149.81
2024-01-16T01:02:52.721Z,98157.52
2024-01-16T01:05:19.913Z,98164.27
2024-01-16T01:07:46.610Z,98173.67
2024-01-16T01:10:13.588Z,98180.32
2024-01-16T01:12:40.208Z,98185.83
2024-01-16T01:15:07.491Z,98188.76
2024-01-16T01:17:34.403Z,98187.80
2024-01-16T01:20:01.076Z,98186.19
2024-01-16T01:22:27.914Z,98194.27
2024-01-16T01:24:54.514Z,98199.02
2024-01-16T01:27:21.122Z,98198.30
2024-01-16T01:29:48.091Z,98202.79
2024-01-16T01:32:14.856Z,98199.41
2024-01-16T01:34:44.336Z,98203.95
2024-01-16T01:37:11.015Z,98206.16
2024-01-16T01:39:37.626Z,98209.95
2024-01-16T01:42:05.358Z,98208.21
2024-01-16T01:44:32.061Z,98212.31
2024-01-16T01:46:59.995Z,98223.66
2024-01-16T01:49:27.647Z,98224.09
2024-01-16T01:51:55.521Z,98239.13
2024-01-16T01:54:23.790Z,98238.95
2024-01-16T01:56:50.810Z,98251.51
2024-01-16T01:59:21.023Z,98262.09
2024-01-16T02:01:49.736Z,98261.94
2024-01-16T02:04:18.200Z,98275.38
2024-01-16T02:06:45.545Z,98274.50
2024-01-16T02:09:14.431Z,98278.92
2024-01-16T02:11:44.602Z,98285.23
2024-01-16T02:14:11.889Z,98283.06
2024-01-16T02:16:45.691Z,98292.20
2024-01-16T02:19:12.430Z,98306.65
2024-01-16T02:21:52.301Z,98308.84
2024-01-16T02:24:20.424Z,98316.33
2024-01-16T02:26:47.321Z,98321.77
2024-01-16T02:29:14.499Z,98324.14
2024-01-16T02:31:41.407Z,98326.66
2024-01-16T02:34:08.137Z,98332.75
2024-01-16T02:36:34.888Z,98339.77
2024-01-16T02:39:01.755Z,98342.33
2024-01-16T02:41:28.445Z,98344.50
2024-01-16T02:43:55.134Z,98348.16
2024-01-16T02:46:21.750Z,98344.27
2024-01-16T02:48:48.622Z,98346.43
2024-01-16T02:51:16.837Z,98360.42
2024-01-16T02:53:43.828Z,98369.38
2024-01-16T02:56:10.776Z,98368.35
2024-01-16T02:58:37.770Z,98373.23
2024-01-16T03:01:04.530Z,98380.38
2024-01-16T03:03:31.181Z,98384.06
2024-01-16T03:05:58.019Z,98388.24
2024-01-16T03:08:24.814Z,98398.92
2024-01-16T03:10:51.428Z,98401.64
2024-01-16T03:13:18.064Z,98404.14
2024-01-16T03:19:10.201Z,98406.36
2024-01-16T03:21:36.849Z,98410.64
2024-01-16T03:24:03.497Z,98417.59
2024-01-16T03:26:30.219Z,98424.64
2024-01-16T03:28:56.901Z,98427.61
2024-01-16T03:31:23.659Z,98431.16
2024-01-16T03:33:50.728Z,98435.55
2024-01-16T03:36:17.645Z,98442.02
2024-01-16T03:38:44.759Z,98442.36
2024-01-16T03:41:15.049Z,98440.55
2024-01-16T03:43:41.990Z,98433.00
2024-01-16T03:46:08.904Z,98440.16
2024-01-16T03:48:35.636Z,98448.61
2024-01-16T03:51:03.738Z,98456.52
2024-01-16T03:53:30.420Z,98460.05
2024-01-16T03:55:57.185Z,98467.98
2024-01-16T03:58:24.227Z,98472.08
2024-01-16T04:00:52.099Z,98479.08
2024-01-16T04:03:18.840Z,98486.83
2024-01-16T04:05:45.522Z,98487.30
2024-01-16T04:08:13.721Z,98492.46
2024-01-16T04:10:40.396Z,98503.63
2024-01-16T04:13:07.480Z,98507.28
2024-01-16T04:15:34.250Z,98514.10
2024-01-16T04:18:01.308Z,98522.11
2024-01-16T04:20:28.013Z,98530.58
2024-01-16T04:22:54.837Z,98539.91
2024-01-16T04:25:21.445Z,98550.52
2024-01-16T04:27:48.074Z,98555.27
2024-01-16T04:30:14.969Z,98556.66
2024-01-16T04:32:42.055Z,98557.59
2024-01-16T04:35:09.845Z,98555.41
2024-01-16T04:37:36.499Z,98558.30
2024-01-16T04:40:03.665Z,98563.55
2024-01-16T04:42:30.384Z,98569.23
2024-01-16T04:44:57.076Z,98568.19
2024-01-16T04:47:23.813Z,98574.79
2024-01-16T04:49:50.568Z,98578.55
2024-01-16T04:52:17.201Z,98579.91
2024-01-16T04:54:46.467Z,98583.42
2024-01-16T04:57:13.158Z,98584.33
2024-01-16T04:59:39.824Z,98586.34
2024-01-16T05:02:06.475Z,98591.16
2024-01-16T05:04:33.102Z,98590.58
2024-01-16T05:06:59.807Z,98596.46
2024-01-16T05:09:26.477Z,98599.86
2024-01-16T05:11:53.222Z,98605.33
2024-01-16T05:14:20.697Z,98612.09
2024-01-16T05:16:47.420Z,98614.26
2024-01-16T05:19:14.055Z,98618.50
2024-01-16T05:21:42.237Z,98626.10
2024-01-16T05:24:09.763Z,98634.52
2024-01-16T05:26:36.620Z,98641.14
2024-01-16T05:29:03.284Z,98646.05
2024-01-16T05:31:29.918Z,98648.99
2024-01-16T05:33:56.572Z,98651.29
2024-01-16T05:36:23.340Z,98654.33
2024-01-16T05:38:51.628Z,98652.47
2024-01-16T05:41:18.541Z,98654.25
2024-01-16T05:43:45.170Z,98661.23
2024-01-16T05:46:11.857Z,98672.77
2024-01-16T05:48:38.671Z,98678.25
2024-01-16T05:51:06.173Z,98683.64
2024-01-16T05:53:32.869Z,98686.89
2024-01-16T05:55:59.543Z,98687.54
2024-01-16T05:58:26.175Z,98693.13
2024-01-16T06:00:52.842Z,98695.27
2024-01-16T06:03:19.874Z,98695.09
2024-01-16T06:05:46.620Z,98702.08
2024-01-16T06:08:13.614Z,98708.95
2024-01-16T06:10:40.244Z,98709.81
2024-01-16T06:13:06.858Z,98711.63
2024-01-16T06:15:34.246Z,98714.84
2024-01-16T06:18:01.052Z,98715.00
2024-01-16T06:20:29.842Z,98716.90
2024-01-16T06:22:56.470Z,98717.96
2024-01-16T06:25:23.288Z,98722.92
2024-01-16T06:27:49.923Z,98723.61
2024-01-16T06:30:16.703Z,98729.85
2024-01-16T06:32:43.667Z,98735.73
2024-01-16T06:35:10.905Z,98741.31
2024-01-16T06:37:37.788Z,98750.55
2024-01-16T06:40:05.439Z,98748.27
2024-01-16T06:42:32.593Z,98752.63
2024-01-16T06:44:59.306Z,98751.62
2024-01-16T06:47:26.143Z,98753.05
2024-01-16T06:49:52.886Z,98757.73
2024-01-16T06:52:19.504Z,98762.27
2024-01-16T06:54:46.162Z,98767.63
2024-01-16T06:57:12.912Z,98774.77
2024-01-16T06:59:39.541Z,98773.66
2024-01-16T07:02:06.976Z,98771.52
2024-01-16T07:04:34.090Z,98782.61
2024-01-16T07:07:00.754Z,98787.55
2024-01-16T07:09:28.440Z,98789.05
2024-01-16T07:11:55.309Z,98797.73
2024-01-16T07:14:22.286Z,98800.98
2024-01-16T07:16:49.199Z,98802.96
2024-01-16T07:19:16.389Z,98809.84
2024-01-16T07:21:43.775Z,98820.67
2024-01-16T07:24:10.451Z,98824.90
2024-01-16T07:26:37.182Z,98831.28
2024-01-16T07:29:03.850Z,98837.13
2024-01-16T07:31:30.768Z,98841.70
2024-01-16T07:33:57.554Z,98844.06
2024-01-16T07:36:24.391Z,98845.45
2024-01-16T07:38:51.142Z,98850.19
2024-01-16T07:41:17.835Z,98855.48
2024-01-16T07:43:46.705Z,98857.91
2024-01-16T07:46:14.256Z,98856.55
2024-01-16T07:48:41.149Z,98865.88
2024-01-16T07:51:07.808Z,98870.38
2024-01-16T07:53:34.497Z,98876.52
2024-01-16T07:56:01.206Z,98877.20
2024-01-16T07:58:27.832Z,98876.77
2024-01-16T08:00:54.508Z,98883.91
2024-01-16T08:03:21.216Z,98892.19
2024-01-16T08:05:48.034Z,98900.22
2024-01-16T08:08:14.763Z,98901.12
2024-01-16T08:10:44.348Z,98905.20
2024-01-16T08:13:11.180Z,98909.70
2024-01-16T08:15:38.102Z,98918.71
2024-01-16T08:18:05.297Z,98921.64
2024-01-16T08:20:32.175Z,98919.89
2024-01-16T08:22:59.280Z,98924.19
2024-01-16T08:25:26.067Z,98923.73
2024-01-16T08:27:52.955Z,98919.99
2024-01-16T08:30:19.841Z,98919.88
2024-01-16T08:32:46.614Z,98924.94
2024-01-16T08:35:13.573Z,98932.69
2024-01-16T08:37:40.327Z,98933.92
2024-01-16T08:40:07.985Z,98941.69
2024-01-16T08:42:34.647Z,98949.92
2024-01-16T08:45:01.386Z,98956.77
2024-01-16T08:47:28.201Z,98952.41
2024-01-16T08:49:54.946Z,98958.66
2024-01-16T08:52:21.661Z,98964.96
2024-01-16T08:54:49.484Z,98966.02
2024-01-16T08:57:18.199Z,98972.77
2024-01-16T08:59:56.785Z,98969.63
2024-01-16T09:02:25.593Z,98981.05
2024-01-16T09:04:52.444Z,98978.79
2024-01-16T09:07:19.962Z,98976.48
2024-01-16T09:09:46.813Z,98983.84
2024-01-16T09:12:13.440Z,98988.66
2024-01-16T09:14:40.221Z,98990.84
2024-01-16T09:17:07.754Z,98993.13
2024-01-16T09:19:35.231Z,98991.41
2024-01-16T09:22:02.181Z,98991.39
2024-01-16T09:24:28.852Z,98994.17
2024-01-16T09:26:55.626Z,98992.27
2024-01-16T09:29:23.748Z,99001.20
2024-01-16T09:31:50.605Z,99005.81
2024-01-16T09:34:18.407Z,99010.23
2024-01-16T09:36:45.159Z,99003.59
2024-01-16T09:39:19.529Z,99006.29
2024-01-16T09:41:46.840Z,99011.42
2024-01-16T09:44:13.754Z,99011.27
2024-01-16T09:46:47.336Z,99017.44
2024-01-16T09:49:16.217Z,99017.02
2024-01-16T09:51:44.411Z,99012.82
2024-01-16T09:54:11.149Z,99020.09
2024-01-16T09:56:46.648Z,99024.49
2024-01-16T09:59:19.466Z,99020.55
2024-01-16T10:01:46.143Z,99014.77
2024-01-16T10:04:13.186Z,99018.28
2024-01-16T10:06:40.902Z,99018.54
2024-01-16T10:09:07.696Z,99025.38
2024-01-16T10:11:35.364Z,99032.70
2024-01-16T10:14:03.416Z,99043.67
2024-01-16T10:17:03.883Z,99044.41
2024-01-16T10:19:43.076Z,99034.67
2024-01-16T10:22:23.637Z,99052.55
2024-01-16T10:25:09.896Z,99050.80
2024-01-16T10:27:37.761Z,99054.34
2024-01-16T10:30:05.445Z,99056.35
2024-01-16T10:32:37.727Z,99072.09
2024-01-16T10:35:10.046Z,99074.98
2024-01-16T10:37:52.802Z,99078.80
2024-01-16T10:40:23.372Z,99076.67
2024-01-16T10:43:20.801Z,99076.98
2024-01-16T10:45:47.491Z,99079.74
2024-01-16T10:48:16.572Z,99077.75
2024-01-16T10:50:43.419Z,99075.39
2024-01-16T10:53:10.503Z,99075.67
2024-01-16T10:56:03.888Z,99075.25
2024-01-16T10:58:32.873Z,99074.65
2024-01-16T11:01:06.701Z,99082.65
2024-01-16T11:03:44.533Z,99082.48
2024-01-16T11:06:12.447Z,99089.23
2024-01-16T11:08:40.662Z,99093.53
2024-01-16T11:11:09.357Z,99093.45
2024-01-16T11:13:37.580Z,99094.25
2024-01-16T11:16:08.656Z,99102.64
2024-01-16T11:18:38.610Z,99102.31
2024-01-16T11:21:11.012Z,99099.77
2024-01-16T11:23:40.291Z,99093.22
2024-01-16T11:26:26.460Z,99103.09
2024-01-16T11:28:54.881Z,99105.98
2024-01-16T11:31:31.632Z,99101.73
2024-01-16T11:34:00.804Z,99103.55
2024-01-16T11:36:57.342Z,99102.12
2024-01-16T11:39:27.481Z,99107.05
2024-01-16T11:41:59.113Z,99108.46
2024-01-16T11:44:55.739Z,99111.22
2024-01-16T11:47:24.458Z,99114.55
2024-01-16T11:49:53.174Z,99112.88
2024-01-16T11:52:44.804Z,99110.05
2024-01-16T11:55:28.678Z,99114.89
2024-01-16T11:58:17.179Z,99118.51
2024-01-16T12:00:47.042Z,99119.85
2024-01-16T12:03:28.674Z,99131.40
2024-01-16T12:06:03.939Z,99136.46
2024-01-16T12:08:31.338Z,99144.52
2024-01-16T12:10:59.225Z,99146.90
2024-01-16T12:13:26.048Z,99151.66
2024-01-16T12:16:06.455Z,99146.94
2024-01-16T12:18:40.846Z,99143.12
2024-01-16T12:21:16.901Z,99148.36
2024-01-16T12:23:49.919Z,99151.25
2024-01-16T12:26:24.038Z,99160.48
2024-01-16T12:28:58.588Z,99161.23
2024-01-16T12:31:28.458Z,99163.00
2024-01-16T12:34:16.678Z,99161.67
2024-01-16T12:36:46.880Z,99152.54
2024-01-16T12:39:14.048Z,99164.08
2024-01-16T12:41:44.755Z,99164.32
2024-01-16T12:44:16.342Z,99170.33
2024-01-16T12:46:56.028Z,99174.90
2024-01-16T12:49:26.497Z,99173.27
2024-01-16T12:52:22.471Z,99181.52
2024-01-16T12:54:52.698Z,99188.20
2024-01-16T12:57:23.141Z,99181.33
2024-01-16T12:59:50.787Z,99182.85
2024-01-16T13:02:25.824Z,99183.39
2024-01-16T13:05:00.259Z,99190.09
2024-01-16T13:07:28.366Z,99193.67
2024-01-16T13:10:09.969Z,99193.59
2024-01-16T13:12:37.625Z,99200.33
2024-01-16T13:15:06.883Z,99198.30
2024-01-16T13:17:37.187Z,99200.24
2024-01-16T13:20:11.179Z,99202.67
2024-01-16T13:22:44.617Z,99198.55
2024-01-16T13:25:14.449Z,99206.04
2024-01-16T13:27:41.636Z,99211.63
2024-01-16T13:30:09.080Z,99214.55
2024-01-16T13:32:38.808Z,99216.41
2024-01-16T13:35:09.532Z,99219.58
2024-01-16T13:37:39.504Z,99222.30
2024-01-16T13:40:16.902Z,99226.25
2024-01-16T13:42:43.945Z,99237.72
2024-01-16T13:45:10.770Z,99236.43
2024-01-16T13:47:40.790Z,99241.59
2024-01-16T13:50:08.730Z,99246.71
2024-01-16T13:52:36.891Z,99248.17
2024-01-16T13:55:06.249Z,99252.36
2024-01-16T13:57:34.121Z,99256.95
2024-01-16T14:00:01.874Z,99259.82
2024-01-16T14:02:39.874Z,99263.92
2024-01-16T14:05:07.195Z,99272.42
2024-01-16T14:07:33.986Z,99275.76
2024-01-16T14:10:45.492Z,99279.83
2024-01-16T14:13:13.911Z,99284.95
2024-01-16T14:15:40.568Z,99286.80
2024-01-16T14:18:07.422Z,99292.25
2024-01-16T14:20:34.256Z,99297.27
2024-01-16T14:23:00.960Z,99303.21
2024-01-16T14:25:27.677Z,99308.44
2024-01-16T14:27:59.188Z,99314.48
2024-01-16T14:30:26.728Z,99317.11
2024-01-16T14:32:54.449Z,99317.84
2024-01-16T14:35:22.023Z,99320.92
2024-01-16T14:37:48.801Z,99323.40
2024-01-16T14:40:21.678Z,99326.72
2024-01-16T14:42:49.138Z,99336.70
2024-01-16T14:45:16.307Z,99339.33
2024-01-16T14:47:43.702Z,99343.48
2024-01-16T14:50:14.663Z,99346.52
2024-01-16T14:52:41.789Z,99346.69
2024-01-16T14:55:08.567Z,99351.89
2024-01-16T14:57:42.930Z,99347.32
2024-01-16T15:00:16.798Z,99350.65
2024-01-16T15:02:43.572Z,99358.69
2024-01-16T15:05:10.310Z,99362.21
2024-01-16T15:07:38.570Z,99369.28
2024-01-16T15:10:10.705Z,99374.91
2024-01-16T15:12:37.376Z,99372.95
2024-01-16T15:15:04.589Z,99378.89
2024-01-16T15:17:31.524Z,99381.68
2024-01-16T15:19:58.517Z,99391.10
2024-01-16T15:22:25.280Z,99389.39
2024-01-16T15:24:52.050Z,99396.72
2024-01-16T15:27:18.817Z,99401.02
2024-01-16T15:29:45.464Z,99404.33
2024-01-16T15:32:12.209Z,99408.17
2024-01-16T15:34:39.299Z,99412.14
2024-01-16T15:37:05.960Z,99412.52
2024-01-16T15:39:32.621Z,99415.58
2024-01-16T15:41:59.865Z,99414.34
2024-01-16T15:44:26.580Z,99414.19
2024-01-16T15:46:56.122Z,99416.92
2024-01-16T15:49:23.884Z,99419.11
2024-01-16T15:51:52.078Z,99418.90
2024-01-16T15:54:20.367Z,99420.55
2024-01-16T15:56:48.944Z,99421.04
2024-01-16T15:59:17.428Z,99422.37
2024-01-16T16:01:44.687Z,99423.47
2024-01-16T16:04:12.126Z,99426.19
2024-01-16T16:06:39.950Z,99434.61
2024-01-16T16:09:09.953Z,99439.88
2024-01-16T16:11:42.783Z,99444.64
2024-01-16T16:14:10.421Z,99447.42
2024-01-16T16:16:37.962Z,99452.39
2024-01-16T16:19:05.466Z,99456.41
2024-01-16T16:21:32.933Z,99460.14
2024-01-16T16:24:00.613Z,99462.11
2024-01-16T16:26:43.885Z,99465.66
2024-01-16T16:29:13.564Z,99466.27
2024-01-16T16:31:41.585Z,99467.66
2024-01-16T16:34:19.413Z,99472.78
2024-01-16T16:36:49.389Z,99473.68
2024-01-16T16:39:18.077Z,99474.70
2024-01-16T16:41:46.130Z,99472.35
2024-01-16T16:44:15.228Z,99476.10
2024-01-16T16:46:41.957Z,99479.46
2024-01-16T16:49:08.667Z,99481.17
2024-01-16T16:51:42.611Z,99484.12
2024-01-16T16:54:10.969Z,99484.55
2024-01-16T16:59:05.343Z,99487.77
2024-01-16T17:01:32.026Z,99492.42
2024-01-16T17:03:58.877Z,99494.73
2024-01-16T17:06:25.801Z,99498.67
2024-01-16T17:08:52.628Z,99499.70
2024-01-16T17:11:19.479Z,99496.83
2024-01-16T17:13:47.122Z,99492.23
2024-01-16T17:16:14.887Z,99491.33
2024-01-16T17:18:42.214Z,99492.48
2024-01-16T17:21:09.467Z,99492.17
2024-01-16T17:23:37.206Z,99493.75
2024-01-16T17:26:06.302Z,99498.92
2024-01-16T17:28:33.050Z,99503.23
2024-01-16T17:31:00.584Z,99503.69
2024-01-16T17:33:27.517Z,99498.66
2024-01-16T17:36:08.966Z,99506.19
2024-01-16T17:38:35.753Z,99506.59
2024-01-16T17:41:03.093Z,99512.44
2024-01-16T17:43:29.727Z,99518.84
2024-01-16T17:45:56.606Z,99520.09
2024-01-16T17:48:25.197Z,99522.21
2024-01-16T17:50:53.142Z,99518.57
2024-01-16T17:53:20.678Z,99518.13
2024-01-16T17:55:49.075Z,99521.95
2024-01-16T17:58:22.712Z,99525.64
2024-01-16T18:00:50.894Z,99524.73
2024-01-16T18:03:32.429Z,99526.60
2024-01-16T18:06:08.686Z,99523.45
2024-01-16T18:08:38.430Z,99530.23
2024-01-16T18:11:05.883Z,99535.20
2024-01-16T18:13:34.039Z,99538.45
2024-01-16T18:16:06.174Z,99540.68
2024-01-16T18:18:34.979Z,99542.94
2024-01-16T18:21:02.321Z,99545.18
2024-01-16T18:23:29.166Z,99547.66
2024-01-16T18:25:58.765Z,99554.83
2024-01-16T18:28:27.271Z,99555.60
2024-01-16T18:30:57.724Z,99561.52
2024-01-16T18:33:24.794Z,99562.69
2024-01-16T18:35:58.943Z,99565.96
2024-01-16T18:38:27.130Z,99569.81
2024-01-16T18:40:53.826Z,99569.44
2024-01-16T18:43:20.985Z,99567.58
2024-01-16T18:45:47.618Z,99569.22
2024-01-16T18:48:15.854Z,99572.55
2024-01-16T18:50:43.566Z,99571.67
2024-01-16T18:53:10.398Z,99570.28
2024-01-16T18:55:37.896Z,99571.12
2024-01-16T18:58:13.675Z,99577.03
2024-01-16T19:00:42.609Z,99581.48
2024-01-16T19:03:10.048Z,99584.28
2024-01-16T19:05:37.622Z,99585.00
2024-01-16T19:08:05.480Z,99588.83
2024-01-16T19:10:32.694Z,99589.40
2024-01-16T19:13:00.537Z,99589.09
2024-01-16T19:15:27.286Z,99595.05
2024-01-16T19:17:54.261Z,99599.46
2024-01-16T19:20:24.211Z,99602.90
2024-01-16T19:22:52.925Z,99607.16
2024-01-16T19:25:19.573Z,99610.48
2024-01-16T19:27:49.154Z,99613.77
2024-01-16T19:30:21.234Z,99618.38
2024-01-16T19:32:48.603Z,99623.05
2024-01-16T19:35:16.127Z,99623.64
2024-01-16T19:37:42.918Z,99631.08
2024-01-16T19:40:16.584Z,99634.34
2024-01-16T19:42:44.322Z,99641.55
2024-01-16T19:45:19.188Z,99647.07
2024-01-16T19:47:48.101Z,99650.83
2024-01-16T19:50:22.340Z,99653.69
2024-01-16T19:52:58.644Z,99657.11
2024-01-16T19:55:25.826Z,99655.96
2024-01-16T19:57:54.065Z,99659.10
2024-01-16T20:00:21.285Z,99656.52
2024-01-16T20:02:48.470Z,99651.33
2024-01-16T20:05:18.716Z,99653.43
2024-01-16T20:07:47.176Z,99653.11
2024-01-16T20:10:16.898Z,99656.11
2024-01-16T20:12:47.064Z,99658.77
2024-01-16T20:15:22.393Z,99662.08
2024-01-16T20:17:54.605Z,99666.71
2024-01-16T20:20:21.880Z,99660.92
2024-01-16T20:22:48.833Z,99665.17
2024-01-16T20:25:15.793Z,99667.84
2024-01-16T20:27:45.324Z,99674.20
2024-01-16T20:30:14.119Z,99678.36
2024-01-16T20:32:44.487Z,99683.81
2024-01-16T20:35:14.131Z,99686.23
2024-01-16T20:37:42.605Z,99696.36
2024-01-16T20:40:10.455Z,99701.98
2024-01-16T20:42:38.503Z,99700.08
2024-01-16T20:45:12.261Z,99699.88
2024-01-16T20:47:41.120Z,99695.00
2024-01-16T20:50:11.211Z,99696.27
2024-01-16T20:52:38.170Z,99698.55
2024-01-16T20:55:07.789Z,99699.34
2024-01-16T20:57:36.753Z,99691.85
2024-01-16T21:00:15.951Z,99690.48
2024-01-16T21:02:44.304Z,99685.38
2024-01-16T21:05:14.812Z,99682.54
2024-01-16T21:07:46.678Z,99678.74
2024-01-16T21:10:13.519Z,99680.11
2024-01-16T21:12:41.616Z,99674.93
2024-01-16T21:15:15.618Z,99673.93
2024-01-16T21:17:42.407Z,99671.08
2024-01-16T21:20:17.473Z,99667.55
2024-01-16T21:22:44.430Z,99672.09
2024-01-16T21:25:12.503Z,99685.36
2024-01-16T21:27:39.137Z,99689.59
2024-01-16T21:30:09.887Z,99682.25
2024-01-16T21:32:36.653Z,99675.92
2024-01-16T21:35:03.567Z,99681.48
2024-01-16T21:37:30.388Z,99675.71
2024-01-16T21:39:57.025Z,99681.71
2024-01-16T21:42:24.158Z,99677.23
2024-01-16T21:44:53.164Z,99678.23
2024-01-16T21:47:25.407Z,99687.52
2024-01-16T21:49:52.876Z,99693.26
2024-01-16T21:52:21.067Z,99699.05
2024-01-16T21:54:48.245Z,99701.42
2024-01-16T21:57:14.884Z,99704.79
2024-01-16T21:59:41.640Z,99711.92
2024-01-16T22:02:11.639Z,99715.90
2024-01-16T22:04:38.888Z,99719.40
2024-01-16T22:07:05.670Z,99719.94
2024-01-16T22:09:32.562Z,99721.70
2024-01-16T22:12:01.987Z,99712.27
2024-01-16T22:14:28.852Z,99709.02
2024-01-16T22:16:55.780Z,99702.12
2024-01-16T22:19:23.448Z,99700.06
2024-01-16T22:21:50.202Z,99693.73
2024-01-16T22:24:17.522Z,99687.44
2024-01-16T22:26:44.328Z,99678.73
2024-01-16T22:29:11.286Z,99682.40
2024-01-16T22:31:47.001Z,99687.36
2024-01-16T22:34:13.965Z,99692.41
2024-01-16T22:44:19.551Z,99689.73
2024-01-16T22:46:46.395Z,99680.58
2024-01-16T22:49:13.201Z,99676.73
2024-01-16T22:51:40.182Z,99677.06
2024-01-16T22:54:08.398Z,99676.13
2024-01-16T22:56:35.296Z,99668.31
2024-01-16T22:59:04.268Z,99663.61
2024-01-16T23:01:32.240Z,99666.81
2024-01-16T23:03:59.790Z,99660.66
2024-01-16T23:06:29.471Z,99659.14
2024-01-16T23:08:57.013Z,99655.30
2024-01-16T23:11:25.084Z,99662.08
2024-01-16T23:13:53.227Z,99664.54
2024-01-16T23:16:20.632Z,99663.48
2024-01-16T23:18:48.557Z,99664.63
2024-01-16T23:21:16.227Z,99663.34
2024-01-16T23:23:44.808Z,99664.88
2024-01-16T23:26:15.985Z,99657.44
2024-01-16T23:28:42.664Z,99658.10
2024-01-16T23:31:12.591Z,99659.70
2024-01-16T23:33:39.494Z,99658.97
2024-01-16T23:36:06.646Z,99658.30
2024-01-16T23:38:34.662Z,99654.35
2024-01-16T23:41:01.763Z,99659.63
2024-01-16T23:43:34.424Z,99666.33
2024-01-16T23:46:03.013Z,99665.23
2024-01-16T23:48:29.892Z,99663.10
2024-01-16T23:50:57.593Z,99659.59
2024-01-16T23:53:24.417Z,99650.46
2024-01-16T23:55:52.329Z,99651.27
2024-01-16T23:58:19.075Z,99651.16
